Pandora, Colorado
Current Conditions -  °F | °C
As of 2:55 AM on Sunday 23 Nov 2014 (Local Time) from KTEX Reporting Station
Light Snow Light Snow  
Wind Chill: 15°   Ceiling: 400
Heat Index: 28°   Visibility: 1mi
Dew Point: 27°   Wind: 18mph
Humidity: 96%   Direction: 270°W
Pressure: 29.84"   Gusts: 26mph
Location:  37.9189°N, 107.878°W
Report Text: KTEX 230955Z AUTO 27016G23KT 1SM -SN OVC004 M02/M03 A2984 RMK AO2 T10241029
Loading
Personal Weather Stations






























Interactive Weather Map New forecast layout! Learn more

10-Day Weather Forecast

Advertisements
Track Severe Weather on mobile